Time;durP1;ratioP1;P1;durP2;ratioP2;P2;SDS_P1;SDS_P2;PMS_P1;PMS_P2;Temp;Humidity;BMP_temperature;BMP_pressure;BME280_temperature;BME280_humidity;BME280_pressure;Samples;Min_cycle;Max_cycle;Signal;HPM_P1;HPM_P2
2022/04/25 00:01:10;;;;;;;16.52;12.88;;;12.20;70.40;;;;;;5125383;27;20019;-58
2022/04/25 00:03:37;;;;;;;18.42;13.75;;;12.20;70.40;;;;;;5125274;27;20019;-58
2022/04/25 00:06:03;;;;;;;21.35;15.55;;;12.10;70.30;;;;;;5111914;27;20028;-57
2022/04/25 00:08:28;;;;;;;17.92;13.93;;;12.10;70.30;;;;;;5107714;27;20028;-58
2022/04/25 00:10:54;;;;;;;19.90;14.80;;;12.10;70.60;;;;;;5124648;27;20091;-58
2022/04/25 00:13:20;;;;;;;17.45;13.70;;;12.10;70.40;;;;;;5132323;27;20035;-59
2022/04/25 00:15:46;;;;;;;17.17;13.63;;;12.20;70.80;;;;;;5124806;27;20042;-58
2022/04/25 00:18:11;;;;;;;18.00;14.23;;;12.00;70.70;;;;;;5123600;27;20019;-59
2022/04/25 00:20:37;;;;;;;16.20;13.15;;;12.00;70.90;;;;;;5115919;27;20027;-58
2022/04/25 00:23:06;;;;;;;18.13;14.70;;;12.00;70.70;;;;;;5114669;27;20050;-58
2022/04/25 00:25:32;;;;;;;15.55;13.45;;;12.00;70.80;;;;;;5122211;27;20038;-58
2022/04/25 00:27:59;;;;;;;15.80;12.55;;;12.00;70.60;;;;;;5120893;27;20043;-58
2022/04/25 00:30:25;;;;;;;16.60;13.05;;;12.00;70.50;;;;;;5115434;27;20027;-57
2022/04/25 00:32:51;;;;;;;17.02;14.43;;;12.00;70.50;;;;;;5130160;27;20084;-58
2022/04/25 00:35:17;;;;;;;16.65;13.35;;;12.00;70.60;;;;;;5117772;27;20062;-57
2022/04/25 00:37:43;;;;;;;15.75;13.38;;;12.00;70.50;;;;;;5111576;27;20024;-57
2022/04/25 00:40:10;;;;;;;16.80;13.20;;;12.00;70.40;;;;;;5109719;27;20049;-58
2022/04/25 00:42:36;;;;;;;16.65;12.48;;;12.00;70.30;;;;;;5115151;27;20023;-58
2022/04/25 00:45:02;;;;;;;15.57;12.50;;;12.00;70.30;;;;;;5118794;27;20039;-57
2022/04/25 00:47:29;;;;;;;15.35;13.13;;;12.00;71.10;;;;;;5115869;27;20039;-59
2022/04/25 00:49:55;;;;;;;14.05;11.65;;;11.90;70.20;;;;;;5118618;27;20050;-59
2022/04/25 00:52:21;;;;;;;14.07;11.43;;;11.90;70.40;;;;;;5127843;27;20046;-59
2022/04/25 00:54:47;;;;;;;17.42;12.68;;;11.90;70.40;;;;;;5120850;27;20028;-59
2022/04/25 00:57:12;;;;;;;17.00;12.38;;;11.90;70.30;;;;;;5120531;28;20024;-57
2022/04/25 00:59:39;;;;;;;15.45;12.25;;;11.90;70.40;;;;;;5122679;27;20019;-59
2022/04/25 01:02:06;;;;;;;14.63;11.50;;;11.90;70.70;;;;;;5111970;27;20028;-58
2022/04/25 01:04:32;;;;;;;16.40;12.48;;;11.90;70.70;;;;;;5125085;27;20051;-58
2022/04/25 01:06:57;;;;;;;13.45;11.30;;;11.90;70.90;;;;;;5124250;27;20046;-59
2022/04/25 01:09:25;;;;;;;14.93;12.25;;;11.90;71.00;;;;;;5113425;28;20095;-59
2022/04/25 01:11:52;;;;;;;14.77;11.80;;;11.90;71.00;;;;;;5118614;27;20081;-58
2022/04/25 01:14:20;;;;;;;16.25;12.35;;;12.00;71.00;;;;;;5124509;27;20039;-59
2022/04/25 01:16:47;;;;;;;14.80;12.63;;;11.90;70.90;;;;;;5128531;27;20087;-58
2022/04/25 01:19:14;;;;;;;14.82;12.32;;;11.90;70.80;;;;;;5121157;27;20019;-58
2022/04/25 01:21:55;;;;;;;15.23;12.48;;;12.00;70.70;;;;;;5122716;27;20044;-57
2022/04/25 01:27:17;;;;;;;16.20;13.50;;;11.90;70.70;;;;;;5117068;27;20031;-58
2022/04/25 01:29:47;;;;;;;17.05;13.65;;;11.90;70.50;;;;;;5103730;28;20024;-58
2022/04/25 01:32:14;;;;;;;14.88;11.77;;;11.90;70.80;;;;;;5109978;27;20055;-59
2022/04/25 01:34:40;;;;;;;16.20;13.20;;;11.80;70.60;;;;;;5119321;27;20028;-57
2022/04/25 01:37:07;;;;;;;15.10;12.60;;;11.80;70.60;;;;;;5117659;27;20612;-57
2022/04/25 01:39:38;;;;;;;16.58;13.15;;;11.80;70.80;;;;;;5120134;27;20106;-58
2022/04/25 01:42:04;;;;;;;16.42;12.77;;;11.80;71.00;;;;;;5116543;27;20038;-59
2022/04/25 01:44:30;;;;;;;17.25;13.45;;;11.80;70.90;;;;;;5121303;27;20027;-58
2022/04/25 01:46:56;;;;;;;17.27;13.38;;;11.80;71.50;;;;;;5121012;27;20091;-58
2022/04/25 01:49:22;;;;;;;19.10;13.23;;;11.80;71.00;;;;;;5108008;27;20048;-59
2022/04/25 01:51:47;;;;;;;19.23;12.95;;;11.80;71.00;;;;;;5120178;27;20046;-59
2022/04/25 01:54:16;;;;;;;16.83;12.80;;;11.80;70.90;;;;;;5116509;27;20077;-58
2022/04/25 01:56:42;;;;;;;15.65;12.70;;;11.80;70.90;;;;;;5118406;27;20086;-57
2022/04/25 01:59:07;;;;;;;14.43;12.82;;;11.80;71.10;;;;;;5116879;27;20096;-58
2022/04/25 02:01:33;;;;;;;14.57;11.82;;;11.80;70.90;;;;;;5117363;27;20043;-59
2022/04/25 02:03:59;;;;;;;15.48;13.20;;;11.80;70.80;;;;;;5119492;27;20031;-59
2022/04/25 02:06:25;;;;;;;13.77;11.75;;;11.80;70.90;;;;;;5120189;27;20032;-58
2022/04/25 02:08:50;;;;;;;16.23;11.82;;;11.80;71.10;;;;;;5117633;27;20034;-58
2022/04/25 02:11:19;;;;;;;16.00;12.15;;;11.80;71.10;;;;;;5116936;27;20032;-58
2022/04/25 02:13:45;;;;;;;17.48;13.30;;;11.80;71.00;;;;;;5116491;27;20059;-57
2022/04/25 02:16:11;;;;;;;15.18;12.88;;;11.80;71.20;;;;;;5123367;27;20031;-59
2022/04/25 02:18:39;;;;;;;17.33;12.77;;;11.80;71.30;;;;;;5123454;27;20034;-58
2022/04/25 02:21:05;;;;;;;17.00;13.32;;;11.80;71.30;;;;;;5118523;27;20027;-58
2022/04/25 02:23:31;;;;;;;16.70;13.48;;;11.90;71.40;;;;;;5117856;27;20059;-59
2022/04/25 02:25:56;;;;;;;17.70;13.82;;;11.80;71.30;;;;;;5121713;27;20043;-58
2022/04/25 02:28:22;;;;;;;17.65;13.63;;;11.80;71.10;;;;;;5124144;27;20030;-58
2022/04/25 02:30:49;;;;;;;14.45;12.52;;;11.80;70.90;;;;;;5115664;27;20039;-58
2022/04/25 02:33:15;;;;;;;17.63;13.75;;;11.90;71.00;;;;;;5124233;27;20036;-59
2022/04/25 02:35:40;;;;;;;17.77;14.82;;;11.90;70.90;;;;;;5112375;28;20108;-59
2022/04/25 02:38:06;;;;;;;17.20;14.75;;;11.90;71.00;;;;;;5126760;27;20034;-59
2022/04/25 02:40:32;;;;;;;19.05;14.27;;;11.90;70.90;;;;;;5118945;27;20028;-58
2022/04/25 02:42:57;;;;;;;18.50;14.55;;;11.90;70.80;;;;;;5126541;27;20035;-59
2022/04/25 02:45:23;;;;;;;17.45;14.02;;;11.90;71.10;;;;;;5120176;27;20074;-59
2022/04/25 02:47:49;;;;;;;16.42;13.25;;;11.90;71.10;;;;;;5117237;27;20035;-59
2022/04/25 02:50:14;;;;;;;19.80;14.73;;;11.90;71.10;;;;;;5126542;27;20057;-59
2022/04/25 02:52:40;;;;;;;19.65;15.23;;;11.80;71.10;;;;;;5111747;28;20123;-58
2022/04/25 02:55:06;;;;;;;20.17;14.85;;;11.90;71.00;;;;;;5117656;27;20097;-59
2022/04/25 02:57:32;;;;;;;19.05;14.95;;;11.90;71.00;;;;;;5114609;27;20028;-59
2022/04/25 02:59:57;;;;;;;18.70;15.27;;;11.90;71.00;;;;;;5124364;27;20034;-59
2022/04/25 03:02:23;;;;;;;20.05;14.27;;;11.90;71.10;;;;;;5115006;27;20023;-59
2022/04/25 03:04:49;;;;;;;17.58;14.55;;;11.90;71.10;;;;;;5110947;27;20090;-58
2022/04/25 03:07:14;;;;;;;23.15;16.02;;;11.90;71.00;;;;;;5117881;27;20034;-59
2022/04/25 03:09:40;;;;;;;19.00;15.00;;;11.90;71.10;;;;;;5110782;27;20039;-58
2022/04/25 03:12:06;;;;;;;18.25;14.40;;;11.90;71.00;;;;;;5121639;27;20040;-59
2022/04/25 03:14:33;;;;;;;20.30;15.05;;;11.90;71.00;;;;;;5123365;27;20020;-59
2022/04/25 03:16:59;;;;;;;18.65;13.68;;;11.90;71.00;;;;;;5128760;27;20049;-59
2022/04/25 03:19:24;;;;;;;18.42;14.68;;;11.90;70.90;;;;;;5120539;27;20019;-58
2022/04/25 03:21:50;;;;;;;19.35;15.25;;;12.00;70.80;;;;;;5115099;28;20035;-57
2022/04/25 03:24:16;;;;;;;17.80;14.95;;;12.00;70.80;;;;;;5121224;27;20023;-57
2022/04/25 03:26:41;;;;;;;19.65;15.95;;;12.00;70.90;;;;;;5116399;27;20023;-59
2022/04/25 03:29:07;;;;;;;18.20;13.80;;;12.00;70.90;;;;;;5117645;28;20131;-58
2022/04/25 03:31:32;;;;;;;19.08;15.15;;;12.00;70.70;;;;;;5115445;28;20098;-57
2022/04/25 03:33:58;;;;;;;18.58;15.88;;;12.00;70.70;;;;;;5114441;28;20031;-59
2022/04/25 03:36:24;;;;;;;20.42;16.45;;;12.00;70.60;;;;;;5124411;28;20026;-59
2022/04/25 03:38:52;;;;;;;22.10;16.25;;;12.00;70.50;;;;;;5115856;28;20020;-57
2022/04/25 03:41:20;;;;;;;18.27;14.65;;;12.00;70.40;;;;;;5120890;28;20372;-58
2022/04/25 03:43:46;;;;;;;17.85;14.48;;;12.00;70.30;;;;;;5119488;28;20023;-59
2022/04/25 03:46:12;;;;;;;17.77;14.65;;;12.00;70.30;;;;;;5120376;28;20019;-57
2022/04/25 03:48:41;;;;;;;20.17;15.30;;;12.00;70.30;;;;;;5113127;28;20036;-59
2022/04/25 03:51:07;;;;;;;17.88;15.48;;;12.00;70.50;;;;;;5116585;28;20627;-59
2022/04/25 03:53:33;;;;;;;19.73;15.40;;;11.90;70.40;;;;;;5120750;28;20024;-57
2022/04/25 03:58:43;;;;;;;16.77;14.05;;;12.00;70.40;;;;;;5124312;28;20040;-58
2022/04/25 04:01:09;;;;;;;14.27;12.73;;;12.00;70.40;;;;;;5122288;28;20027;-59
2022/04/25 04:03:35;;;;;;;19.10;14.38;;;12.00;70.50;;;;;;5124039;28;20050;-57
2022/04/25 04:06:01;;;;;;;17.02;14.60;;;12.00;70.40;;;;;;5116086;28;20027;-58
2022/04/25 04:08:27;;;;;;;18.05;13.85;;;12.00;70.40;;;;;;5113738;28;20020;-59
2022/04/25 04:10:52;;;;;;;17.38;14.55;;;12.00;70.20;;;;;;5124890;28;20020;-59
2022/04/25 04:13:19;;;;;;;17.73;14.43;;;12.00;70.10;;;;;;5114466;28;20035;-57
2022/04/25 04:15:44;;;;;;;16.48;12.80;;;12.00;70.20;;;;;;5114145;28;20020;-58
2022/04/25 04:18:10;;;;;;;17.55;14.07;;;12.00;70.30;;;;;;5118639;28;20076;-59
2022/04/25 04:20:36;;;;;;;17.33;14.10;;;12.00;70.30;;;;;;5120756;28;20103;-59
2022/04/25 04:23:02;;;;;;;18.70;15.18;;;12.00;70.60;;;;;;5116274;28;20028;-58
2022/04/25 04:25:27;;;;;;;18.70;14.80;;;12.00;70.40;;;;;;5123171;28;20044;-58
2022/04/25 04:27:53;;;;;;;20.45;15.38;;;12.00;70.30;;;;;;5121246;28;20049;-59
2022/04/25 04:30:18;;;;;;;19.13;15.05;;;12.00;70.30;;;;;;5113488;28;20027;-58
2022/04/25 04:32:44;;;;;;;19.35;15.30;;;12.00;70.20;;;;;;5111577;28;20054;-57
2022/04/25 04:35:12;;;;;;;22.10;16.73;;;12.00;70.20;;;;;;5118829;28;20024;-58
2022/04/25 04:37:39;;;;;;;21.60;17.45;;;12.00;70.30;;;;;;5114817;28;20053;-58
2022/04/25 04:42:52;;;;;;;21.60;17.17;;;11.90;70.00;;;;;;5124044;27;20104;-58
2022/04/25 04:45:17;;;;;;;22.45;17.95;;;11.90;70.10;;;;;;5120244;27;20028;-57
2022/04/25 04:47:43;;;;;;;21.67;18.23;;;11.90;70.20;;;;;;5124335;27;20050;-57
2022/04/25 04:50:14;;;;;;;23.25;18.15;;;11.90;70.20;;;;;;5129950;27;20077;-59
2022/04/25 04:52:42;;;;;;;23.30;18.55;;;11.90;70.20;;;;;;5123056;27;20086;-57
2022/04/25 04:55:08;;;;;;;24.52;18.40;;;11.90;70.40;;;;;;5119298;27;20080;-58
2022/04/25 04:57:33;;;;;;;23.15;18.55;;;11.80;70.40;;;;;;5115934;27;20027;-58
2022/04/25 04:59:59;;;;;;;23.50;18.42;;;11.80;70.50;;;;;;5124302;27;20028;-57
2022/04/25 05:02:24;;;;;;;21.05;16.55;;;11.90;70.70;;;;;;5124576;27;20023;-58
2022/04/25 05:04:50;;;;;;;22.58;17.88;;;11.90;70.80;;;;;;5124649;27;20023;-58
2022/04/25 05:07:16;;;;;;;25.58;18.70;;;11.90;70.80;;;;;;5129689;27;20030;-57
2022/04/25 05:09:42;;;;;;;22.90;18.58;;;11.90;70.90;;;;;;5121822;27;20816;-59
2022/04/25 05:12:09;;;;;;;24.17;18.75;;;11.90;70.90;;;;;;5121177;27;20040;-59
2022/04/25 05:14:34;;;;;;;23.27;17.60;;;11.90;70.90;;;;;;5121655;27;20030;-58
2022/04/25 05:17:00;;;;;;;23.40;17.67;;;11.90;70.80;;;;;;5121407;28;20106;-58
2022/04/25 05:19:26;;;;;;;25.02;19.27;;;12.00;70.80;;;;;;5129641;27;20039;-58
2022/04/25 05:21:51;;;;;;;21.08;16.67;;;12.00;70.80;;;;;;5131868;27;20031;-58
2022/04/25 05:24:17;;;;;;;21.38;17.27;;;12.00;70.90;;;;;;5117653;27;20032;-59
2022/04/25 05:26:43;;;;;;;20.55;16.80;;;12.00;70.80;;;;;;5114609;27;20079;-58
2022/04/25 05:29:08;;;;;;;22.70;17.50;;;12.00;70.70;;;;;;5124607;27;20028;-58
2022/04/25 05:31:34;;;;;;;22.42;17.08;;;12.00;70.70;;;;;;5116362;27;20024;-58
2022/04/25 05:34:01;;;;;;;22.33;17.35;;;12.00;70.80;;;;;;5119217;27;20056;-59
2022/04/25 05:36:27;;;;;;;19.98;16.70;;;12.00;70.90;;;;;;5124390;27;20016;-59
2022/04/25 05:38:52;;;;;;;19.48;16.10;;;12.10;71.00;;;;;;5126351;27;20046;-57
2022/04/25 05:41:18;;;;;;;19.83;15.65;;;12.10;70.90;;;;;;5123401;27;20023;-57
2022/04/25 05:43:45;;;;;;;19.83;15.77;;;12.10;70.70;;;;;;5114812;28;20051;-59
2022/04/25 05:46:10;;;;;;;21.65;16.15;;;12.10;70.40;;;;;;5122140;28;20031;-58
2022/04/25 05:54:05;;;;;;;17.05;14.18;;;12.30;70.40;;;;;;5114069;27;20047;-57
2022/04/25 05:56:31;;;;;;;19.77;15.18;;;12.30;70.20;;;;;;5120283;27;20095;-59
2022/04/25 05:58:57;;;;;;;19.13;15.45;;;12.40;70.10;;;;;;5114453;27;20039;-57
2022/04/25 06:01:22;;;;;;;18.08;14.40;;;12.30;70.10;;;;;;5124729;27;20019;-58
2022/04/25 06:03:48;;;;;;;20.35;14.55;;;12.40;69.90;;;;;;5117115;27;20046;-58
2022/04/25 06:06:13;;;;;;;15.88;13.20;;;12.40;69.80;;;;;;5111710;27;20063;-59
2022/04/25 06:08:39;;;;;;;20.58;13.35;;;12.50;69.90;;;;;;5113593;27;20035;-58
2022/04/25 06:11:05;;;;;;;17.73;14.13;;;12.50;69.70;;;;;;5122043;27;20016;-59
2022/04/25 06:13:31;;;;;;;18.25;13.55;;;12.50;69.70;;;;;;5115693;27;20053;-58
2022/04/25 06:15:56;;;;;;;15.93;13.10;;;12.60;69.50;;;;;;5107177;27;20067;-58
2022/04/25 06:18:25;;;;;;;18.45;13.75;;;12.60;69.50;;;;;;5117766;27;20035;-59
2022/04/25 06:20:50;;;;;;;16.30;13.13;;;12.70;69.40;;;;;;5119595;27;20035;-59
2022/04/25 06:23:17;;;;;;;17.08;13.40;;;12.80;69.40;;;;;;5112414;27;20038;-59
2022/04/25 06:25:43;;;;;;;18.00;13.95;;;12.80;69.20;;;;;;5121298;27;20031;-58
2022/04/25 06:28:10;;;;;;;15.30;12.52;;;12.90;68.70;;;;;;5124169;27;20049;-58
2022/04/25 06:30:36;;;;;;;17.52;12.90;;;13.00;68.40;;;;;;5116097;27;20027;-60
2022/04/25 06:33:01;;;;;;;15.07;12.75;;;13.00;68.40;;;;;;5113019;27;20058;-59
2022/04/25 06:35:28;;;;;;;17.77;13.02;;;13.00;68.50;;;;;;5117444;27;20024;-59
2022/04/25 06:37:54;;;;;;;15.32;12.48;;;13.00;68.30;;;;;;5108083;27;20019;-58
2022/04/25 06:40:20;;;;;;;16.10;12.98;;;13.00;68.30;;;;;;5107852;28;20073;-59
2022/04/25 06:42:46;;;;;;;16.52;12.70;;;13.10;68.10;;;;;;5116969;27;20028;-58
2022/04/25 06:45:13;;;;;;;16.98;12.70;;;13.10;67.90;;;;;;5122175;27;20023;-60
2022/04/25 06:47:39;;;;;;;15.63;12.27;;;13.10;68.30;;;;;;5116395;27;20043;-60
2022/04/25 06:50:05;;;;;;;13.95;11.48;;;13.30;68.60;;;;;;5114958;27;20056;-58
2022/04/25 06:52:31;;;;;;;13.57;10.98;;;13.40;68.70;;;;;;5127286;27;20477;-58
2022/04/25 06:54:57;;;;;;;12.82;10.43;;;13.50;68.30;;;;;;5115324;27;20041;-58
2022/04/25 06:57:23;;;;;;;11.13;9.93;;;13.70;68.00;;;;;;5110624;28;20031;-59
2022/04/25 06:59:48;;;;;;;13.48;9.20;;;13.90;67.60;;;;;;5111290;27;20040;-58
2022/04/25 07:02:15;;;;;;;10.77;9.00;;;14.00;67.30;;;;;;5109573;27;20098;-59
2022/04/25 07:04:42;;;;;;;11.55;9.05;;;14.20;66.50;;;;;;5117354;27;20090;-59
2022/04/25 07:07:08;;;;;;;10.25;8.57;;;14.30;66.20;;;;;;5117695;27;20031;-58
2022/04/25 07:09:34;;;;;;;12.52;8.82;;;14.40;65.40;;;;;;5126345;27;20062;-59
2022/04/25 07:12:01;;;;;;;14.00;8.85;;;14.50;65.00;;;;;;5111628;28;20035;-58
2022/04/25 07:14:28;;;;;;;10.25;8.57;;;14.50;63.00;;;;;;5114094;27;20019;-58
2022/04/25 07:16:57;;;;;;;8.80;7.50;;;14.50;63.30;;;;;;5118047;27;20521;-58
2022/04/25 07:19:23;;;;;;;10.93;8.65;;;14.40;63.10;;;;;;5117161;27;20023;-59
2022/04/25 07:30:04;;;;;;;8.80;7.28;;;14.40;63.40;;;;;;5116329;28;20034;-58
2022/04/25 07:32:30;;;;;;;7.95;6.78;;;14.30;63.50;;;;;;5112085;27;20042;-60
2022/04/25 07:34:55;;;;;;;7.93;6.20;;;14.40;63.40;;;;;;5116324;28;20042;-58
2022/04/25 07:37:24;;;;;;;7.88;6.50;;;14.30;62.90;;;;;;5119942;28;20024;-59
2022/04/25 07:39:51;;;;;;;6.85;6.15;;;14.30;62.30;;;;;;5112823;28;20111;-58
2022/04/25 07:42:18;;;;;;;7.47;6.55;;;14.30;63.50;;;;;;5112552;27;20027;-60
2022/04/25 07:44:45;;;;;;;8.00;6.25;;;14.40;62.70;;;;;;5111850;28;20016;-59
2022/04/25 07:47:11;;;;;;;7.47;6.60;;;14.40;62.90;;;;;;5121699;28;20016;-58
2022/04/25 07:49:38;;;;;;;8.88;5.93;;;14.40;61.70;;;;;;5128613;28;20556;-59
2022/04/25 07:52:04;;;;;;;8.43;5.80;;;14.50;60.90;;;;;;5119708;28;20146;-60
2022/04/25 07:54:29;;;;;;;7.15;5.82;;;14.50;61.70;;;;;;5118188;28;20369;-58
2022/04/25 07:56:55;;;;;;;6.47;5.60;;;14.50;62.20;;;;;;5113573;28;20053;-59
2022/04/25 07:59:21;;;;;;;6.57;5.50;;;14.50;62.80;;;;;;5113528;28;20019;-58
2022/04/25 08:01:47;;;;;;;9.50;5.32;;;14.70;62.80;;;;;;5110906;28;20027;-58
2022/04/25 08:04:12;;;;;;;6.13;4.68;;;14.70;61.50;;;;;;5120724;28;20034;-59
2022/04/25 08:06:39;;;;;;;4.78;4.28;;;14.90;61.20;;;;;;5114668;28;20094;-60
2022/04/25 08:09:05;;;;;;;5.28;4.72;;;14.90;61.20;;;;;;5116099;28;20035;-59
2022/04/25 08:11:31;;;;;;;5.00;4.50;;;15.00;60.70;;;;;;5117239;27;20031;-60
2022/04/25 08:19:22;;;;;;;5.68;4.07;;;15.20;60.30;;;;;;5123458;27;19974;-59
2022/04/25 08:21:48;;;;;;;4.55;3.53;;;15.20;60.20;;;;;;5128548;27;20061;-60
2022/04/25 08:24:15;;;;;;;4.25;3.83;;;15.20;59.80;;;;;;5122646;27;20023;-59
2022/04/25 08:26:41;;;;;;;4.15;3.65;;;15.30;60.00;;;;;;5118882;27;20024;-59
2022/04/25 08:29:07;;;;;;;4.75;3.53;;;15.50;60.00;;;;;;5126894;27;20019;-59
2022/04/25 08:31:34;;;;;;;4.13;3.72;;;15.60;59.70;;;;;;5116213;27;20072;-60
2022/04/25 08:34:02;;;;;;;5.28;4.07;;;15.80;59.40;;;;;;5119981;27;20057;-59
2022/04/25 08:36:28;;;;;;;5.57;4.35;;;16.10;59.50;;;;;;5116321;28;20024;-59
2022/04/25 08:38:54;;;;;;;5.22;4.72;;;16.30;59.70;;;;;;5121013;27;20028;-59
2022/04/25 08:41:43;;;;;;;7.57;4.78;;;16.60;59.70;;;;;;5111782;28;20410;-59
2022/04/25 08:44:10;;;;;;;4.57;4.18;;;16.90;58.20;;;;;;5125497;27;20047;-58
2022/04/25 08:46:38;;;;;;;3.58;3.28;;;17.10;58.60;;;;;;5133735;27;20024;-59
2022/04/25 08:49:05;;;;;;;3.97;3.55;;;17.30;57.40;;;;;;5118520;27;20129;-59
2022/04/25 08:51:36;;;;;;;3.60;3.30;;;17.50;56.80;;;;;;5118703;27;20024;-59
2022/04/25 08:54:06;;;;;;;3.97;3.28;;;17.50;55.70;;;;;;5118575;27;20035;-58
2022/04/25 08:56:33;;;;;;;7.13;3.75;;;17.50;55.30;;;;;;5118999;27;20028;-59
2022/04/25 08:59:00;;;;;;;3.63;3.25;;;17.50;54.90;;;;;;5117177;27;20046;-58
2022/04/25 09:01:26;;;;;;;4.28;3.15;;;17.50;54.20;;;;;;5127394;27;20027;-60
2022/04/25 09:03:51;;;;;;;4.40;3.97;;;17.30;54.10;;;;;;5115215;27;20019;-59
2022/04/25 09:06:17;;;;;;;4.88;4.38;;;17.20;54.20;;;;;;5120807;27;20083;-59
2022/04/25 09:08:43;;;;;;;5.30;4.10;;;17.10;53.90;;;;;;5117158;27;20091;-59
2022/04/25 09:13:54;;;;;;;6.70;4.20;;;17.00;55.20;;;;;;5113780;27;20177;-59
2022/04/25 09:16:19;;;;;;;6.10;4.18;;;17.00;55.10;;;;;;5112724;27;20180;-60
2022/04/25 09:18:45;;;;;;;5.28;3.75;;;17.00;54.90;;;;;;5116881;27;20538;-59
2022/04/25 09:21:14;;;;;;;4.55;3.90;;;16.90;54.90;;;;;;5118061;27;20023;-60
2022/04/25 09:23:40;;;;;;;5.07;4.38;;;16.90;54.40;;;;;;5120690;27;20019;-58
2022/04/25 09:26:17;;;;;;;3.78;3.47;;;16.80;53.80;;;;;;5125450;27;20028;-59
2022/04/25 09:28:52;;;;;;;4.45;3.83;;;16.70;53.90;;;;;;5108496;27;20031;-59
2022/04/25 09:31:19;;;;;;;4.53;3.55;;;16.70;55.00;;;;;;5121868;27;20033;-59
2022/04/25 09:33:45;;;;;;;4.15;3.75;;;16.80;56.10;;;;;;5120990;27;20042;-59
2022/04/25 09:36:11;;;;;;;3.80;3.35;;;16.90;56.60;;;;;;5128884;27;20077;-59
2022/04/25 09:38:40;;;;;;;4.35;3.72;;;17.10;55.00;;;;;;5112568;27;20024;-59
2022/04/25 09:41:08;;;;;;;5.05;3.78;;;17.20;54.40;;;;;;5117417;27;20023;-59
2022/04/25 09:43:36;;;;;;;3.30;3.00;;;17.40;55.20;;;;;;5113919;27;20027;-58
2022/04/25 09:46:13;;;;;;;4.00;2.72;;;17.50;55.30;;;;;;5120334;27;20031;-58
2022/04/25 09:48:41;;;;;;;5.03;3.67;;;17.70;54.40;;;;;;5116598;27;20048;-60
2022/04/25 09:51:16;;;;;;;3.70;3.30;;;17.80;54.70;;;;;;5121912;27;20024;-59
2022/04/25 09:53:54;;;;;;;9.23;4.90;;;17.80;53.90;;;;;;5115339;27;20039;-60
2022/04/25 09:56:25;;;;;;;6.10;3.67;;;17.90;54.90;;;;;;5110403;27;20052;-60
2022/04/25 09:59:09;;;;;;;4.43;3.80;;;17.90;54.30;;;;;;5118957;27;20024;-60
2022/04/25 10:01:37;;;;;;;5.10;3.70;;;18.00;53.10;;;;;;5110206;27;20053;-59
2022/04/25 10:04:06;;;;;;;4.15;3.75;;;18.10;53.60;;;;;;5119903;27;20031;-60
2022/04/25 10:06:33;;;;;;;3.80;3.45;;;18.10;53.50;;;;;;5111519;27;20020;-58
2022/04/25 10:09:02;;;;;;;7.15;3.95;;;18.10;53.30;;;;;;5112589;27;20035;-57
2022/04/25 10:11:36;;;;;;;3.75;3.28;;;18.00;52.20;;;;;;5120368;27;20028;-58
2022/04/25 10:14:02;;;;;;;3.35;3.05;;;18.00;52.30;;;;;;5121929;27;20035;-57
2022/04/25 10:16:29;;;;;;;4.75;3.47;;;17.90;53.10;;;;;;5127440;27;20023;-58
2022/04/25 10:18:55;;;;;;;4.10;3.20;;;17.90;53.10;;;;;;5114306;27;20030;-60
2022/04/25 10:21:21;;;;;;;3.42;3.13;;;17.90;53.30;;;;;;5118892;27;20055;-59
2022/04/25 10:23:47;;;;;;;3.33;3.03;;;18.00;53.30;;;;;;5116682;27;20033;-60
2022/04/25 10:26:13;;;;;;;3.40;3.10;;;18.10;52.90;;;;;;5059176;27;20032;-59
2022/04/25 10:28:57;;;;;;;3.25;2.83;;;18.20;52.50;;;;;;5111126;27;20074;-58
2022/04/25 10:31:27;;;;;;;6.22;3.95;;;18.30;51.10;;;;;;5113578;27;20537;-58
2022/04/25 10:34:02;;;;;;;3.78;3.40;;;18.30;51.90;;;;;;5113746;27;20115;-58
2022/04/25 10:36:36;;;;;;;4.15;3.58;;;18.40;51.60;;;;;;5121317;27;20028;-59
2022/04/25 10:39:20;;;;;;;4.38;3.90;;;18.40;51.60;;;;;;5117071;27;20119;-58
2022/04/25 10:44:46;;;;;;;4.47;3.60;;;18.40;51.10;;;;;;5119321;27;20300;-59
2022/04/25 10:47:17;;;;;;;3.83;3.42;;;18.40;51.30;;;;;;5118037;27;20058;-58
2022/04/25 10:49:58;;;;;;;3.95;3.55;;;18.40;51.20;;;;;;5108522;27;20031;-59
2022/04/25 10:55:33;;;;;;;5.22;4.10;;;18.60;49.80;;;;;;5122858;27;20028;-59
2022/04/25 10:58:02;;;;;;;4.45;3.65;;;18.80;50.30;;;;;;5126135;27;20024;-60
2022/04/25 11:00:37;;;;;;;4.93;3.88;;;19.00;51.40;;;;;;5122009;27;20177;-58
2022/04/25 11:03:24;;;;;;;4.10;3.70;;;19.20;51.70;;;;;;5131525;27;20023;-58
2022/04/25 11:05:55;;;;;;;3.65;3.35;;;19.50;49.50;;;;;;5109808;27;20391;-60
2022/04/25 11:08:24;;;;;;;4.32;3.22;;;19.70;50.80;;;;;;5125883;27;20045;-60
2022/04/25 11:10:51;;;;;;;4.30;3.40;;;19.90;51.20;;;;;;5126207;27;20036;-59
2022/04/25 11:13:18;;;;;;;4.15;3.63;;;20.10;51.20;;;;;;5124050;27;20036;-58
2022/04/25 11:15:45;;;;;;;4.30;3.70;;;20.30;50.50;;;;;;5123402;27;20019;-58
2022/04/25 11:18:30;;;;;;;3.85;3.40;;;20.50;49.80;;;;;;5122591;27;20042;-58
2022/04/25 11:21:07;;;;;;;3.65;3.35;;;20.60;45.80;;;;;;5125482;27;20032;-60
2022/04/25 11:23:35;;;;;;;3.50;2.95;;;20.80;48.70;;;;;;5121782;27;20066;-58
2022/04/25 11:26:04;;;;;;;4.38;3.50;;;20.90;48.80;;;;;;5126394;27;20351;-59
2022/04/25 11:28:31;;;;;;;3.95;3.30;;;20.90;48.70;;;;;;5118011;27;20020;-58
2022/04/25 11:31:17;;;;;;;3.40;3.10;;;21.10;48.50;;;;;;5128878;27;20035;-59
2022/04/25 11:33:47;;;;;;;3.17;2.88;;;21.20;47.20;;;;;;5123552;27;20039;-59
2022/04/25 11:36:13;;;;;;;3.95;3.50;;;21.20;47.80;;;;;;5127175;27;20027;-58
2022/04/25 11:41:25;;;;;;;3.90;3.38;;;21.30;47.60;;;;;;5125928;28;20039;-58
2022/04/25 11:43:51;;;;;;;3.25;2.95;;;21.40;45.90;;;;;;5125159;27;20083;-59
2022/04/25 11:46:17;;;;;;;3.25;2.95;;;21.40;45.50;;;;;;5127417;27;20028;-59
2022/04/25 11:48:48;;;;;;;3.22;2.72;;;21.30;45.40;;;;;;5110462;27;20047;-59
2022/04/25 11:51:30;;;;;;;3.30;3.00;;;21.30;44.50;;;;;;5116843;27;20027;-59
2022/04/25 11:53:59;;;;;;;7.55;3.00;;;21.10;44.20;;;;;;5113354;27;20070;-59
2022/04/25 11:56:26;;;;;;;6.30;3.05;;;21.00;45.00;;;;;;5117542;27;20114;-61
2022/04/25 11:58:54;;;;;;;4.15;3.08;;;20.90;44.80;;;;;;5122994;27;20019;-61
2022/04/25 12:01:41;;;;;;;3.45;3.13;;;20.80;44.50;;;;;;5121637;27;20027;-59
2022/04/25 12:04:21;;;;;;;3.20;2.90;;;20.60;44.00;;;;;;5123933;27;20030;-59
2022/04/25 12:06:58;;;;;;;3.08;2.67;;;20.40;43.60;;;;;;5122405;27;22051;-60
2022/04/25 12:17:54;;;;;;;3.20;2.90;;;19.70;45.40;;;;;;5114664;27;20046;-58
2022/04/25 12:20:29;;;;;;;3.47;3.03;;;19.60;45.80;;;;;;5135160;27;20904;-59
2022/04/25 12:22:59;;;;;;;3.65;3.35;;;19.60;46.20;;;;;;5125691;27;20019;-58
2022/04/25 12:25:28;;;;;;;4.03;3.30;;;19.50;45.90;;;;;;5126169;27;20034;-59
2022/04/25 12:28:07;;;;;;;3.17;2.88;;;19.50;45.80;;;;;;5122198;27;20023;-58
2022/04/25 12:30:52;;;;;;;3.67;3.38;;;19.50;46.40;;;;;;5116450;27;20370;-59
2022/04/25 12:33:20;;;;;;;4.10;3.20;;;19.60;45.20;;;;;;5125265;27;20027;-59
2022/04/25 12:35:48;;;;;;;4.78;3.30;;;19.60;46.30;;;;;;5121477;27;20418;-59
2022/04/25 12:38:35;;;;;;;4.30;3.67;;;19.60;46.40;;;;;;5117664;27;20051;-58
2022/04/25 12:41:02;;;;;;;3.95;3.13;;;19.60;45.40;;;;;;5124121;27;20027;-59
2022/04/25 12:43:42;;;;;;;3.88;3.47;;;19.70;46.70;;;;;;5114625;27;20454;-59
2022/04/25 12:46:08;;;;;;;4.53;4.07;;;19.70;45.30;;;;;;5117727;27;20855;-59
2022/04/25 12:49:03;;;;;;;4.10;3.47;;;19.70;46.20;;;;;;5120929;27;20482;-59
2022/04/25 12:51:33;;;;;;;4.07;3.63;;;19.70;45.40;;;;;;5122750;27;20033;-58
2022/04/25 12:53:59;;;;;;;3.95;3.28;;;19.70;45.90;;;;;;5118949;27;20076;-58
2022/04/25 12:56:30;;;;;;;4.18;3.55;;;19.60;46.00;;;;;;5117824;27;20034;-61
2022/04/25 12:58:56;;;;;;;3.53;3.22;;;19.50;46.20;;;;;;5122164;27;20036;-59
2022/04/25 13:01:28;;;;;;;5.00;3.72;;;19.50;46.20;;;;;;5122469;27;20542;-59
2022/04/25 13:04:23;;;;;;;4.15;3.70;;;19.40;45.30;;;;;;5117303;27;20076;-59
2022/04/25 13:06:49;;;;;;;5.28;4.30;;;19.40;44.80;;;;;;5113514;27;20055;-59
2022/04/25 13:09:15;;;;;;;5.10;3.72;;;19.30;45.30;;;;;;5116536;27;20028;-59
2022/04/25 13:11:42;;;;;;;4.00;3.60;;;19.20;45.70;;;;;;5113591;27;20023;-58
2022/04/25 13:14:08;;;;;;;5.22;4.13;;;19.10;45.80;;;;;;5112177;27;20023;-58
2022/04/25 13:16:33;;;;;;;5.47;3.80;;;19.00;46.00;;;;;;5125964;27;20032;-58
2022/04/25 13:18:59;;;;;;;4.25;3.85;;;18.90;46.40;;;;;;5114224;27;20051;-58
2022/04/25 13:21:25;;;;;;;5.03;4.00;;;18.80;46.20;;;;;;5117947;27;20514;-59
2022/04/25 13:23:52;;;;;;;7.25;4.78;;;18.70;46.30;;;;;;5120724;27;20130;-59
2022/04/25 13:26:19;;;;;;;6.78;5.00;;;18.60;46.40;;;;;;5114893;27;20039;-59